Time;durP1;ratioP1;P1;durP2;ratioP2;P2;SDS_P1;SDS_P2;PMS_P1;PMS_P2;Temp;Humidity;BMP_temperature;BMP_pressure;BME280_temperature;BME280_humidity;BME280_pressure;Samples;Min_cycle;Max_cycle;Signal;HPM_P1;HPM_P2
2021/08/30 00:01:28;;;;;;;19.48;12.35;;;;;;;14.40;100.00;100828.44;5057262;28;20048;-84
2021/08/30 00:03:54;;;;;;;19.33;12.60;;;;;;;14.43;100.00;100834.41;5055836;28;20021;-84
2021/08/30 00:06:19;;;;;;;18.50;12.25;;;;;;;14.39;100.00;100827.59;5055688;28;20075;-84
2021/08/30 00:08:44;;;;;;;17.80;12.02;;;;;;;14.39;100.00;100831.97;5056989;28;20017;-84
2021/08/30 00:11:09;;;;;;;16.65;12.07;;;;;;;14.39;100.00;100830.19;5055880;28;20029;-84
2021/08/30 00:13:35;;;;;;;17.90;12.02;;;;;;;14.37;100.00;100828.53;5055737;28;20028;-84
2021/08/30 00:16:00;;;;;;;19.30;12.48;;;;;;;14.35;100.00;100833.81;5055727;28;20120;-84
2021/08/30 00:18:26;;;;;;;19.38;11.82;;;;;;;14.36;100.00;100830.28;5057056;28;20091;-84
2021/08/30 00:20:52;;;;;;;17.02;12.02;;;;;;;14.38;100.00;100825.03;5056939;28;20393;-84
2021/08/30 00:23:18;;;;;;;23.17;12.65;;;;;;;14.35;100.00;100823.38;5057056;28;20374;-84
2021/08/30 00:25:43;;;;;;;20.77;13.23;;;;;;;14.38;100.00;100825.03;5055416;28;20158;-84
2021/08/30 00:28:09;;;;;;;19.88;12.05;;;;;;;14.38;100.00;100820.66;5055234;28;20469;-83
2021/08/30 00:30:34;;;;;;;16.85;11.95;;;;;;;14.37;100.00;100821.53;5055838;28;20021;-84
2021/08/30 00:33:00;;;;;;;20.20;12.45;;;;;;;14.34;100.00;100819.03;5055851;28;20146;-84
2021/08/30 00:35:25;;;;;;;20.23;12.40;;;;;;;14.33;100.00;100822.53;5055516;28;20032;-84
2021/08/30 00:37:51;;;;;;;17.80;12.15;;;;;;;14.33;100.00;100819.09;5055398;28;20071;-84
2021/08/30 00:40:16;;;;;;;18.63;12.18;;;;;;;14.33;100.00;100827.75;5055122;28;20490;-84
2021/08/30 00:42:43;;;;;;;19.80;12.20;;;;;;;14.30;100.00;100820.03;5056476;28;20074;-84
2021/08/30 00:45:10;;;;;;;23.15;13.57;;;;;;;14.30;100.00;100820.03;5055236;28;20401;-84
2021/08/30 00:47:37;;;;;;;20.17;13.10;;;;;;;14.34;100.00;100828.63;5056142;28;20098;-84
2021/08/30 00:50:07;;;;;;;20.25;12.45;;;;;;;14.30;100.00;100819.19;5054255;28;20420;-84
2021/08/30 00:52:32;;;;;;;20.13;13.05;;;;;;;14.28;100.00;100821.81;5056098;28;20481;-84
2021/08/30 00:54:58;;;;;;;16.90;12.13;;;;;;;14.28;100.00;100824.44;5054853;28;20048;-84
2021/08/30 00:57:24;;;;;;;22.42;12.50;;;;;;;14.28;100.00;100827.03;5056057;28;20495;-84
2021/08/30 00:59:49;;;;;;;19.55;12.38;;;;;;;14.28;100.00;100832.25;5054991;28;20053;-83
2021/08/30 01:02:14;;;;;;;19.98;12.75;;;;;;;14.24;100.00;100830.63;5054881;28;20035;-83
2021/08/30 01:04:41;;;;;;;21.13;12.48;;;;;;;14.21;100.00;100830.72;5056384;28;20496;-84
2021/08/30 01:07:25;;;;;;;19.33;12.52;;;;;;;14.30;100.00;100834.84;5056091;28;20083;-84
2021/08/30 01:10:00;;;;;;;23.42;12.45;;;;;;;14.30;100.00;100838.28;5054912;28;20033;-84
2021/08/30 01:12:32;;;;;;;22.45;11.98;;;;;;;14.27;100.00;100826.19;5054770;28;20108;-83
2021/08/30 01:15:02;;;;;;;21.98;13.45;;;;;;;14.24;100.00;100830.63;5055860;28;20067;-84
2021/08/30 01:17:30;;;;;;;20.05;12.88;;;;;;;14.24;100.00;100839.31;5054254;28;20041;-84
2021/08/30 01:20:28;;;;;;;18.55;12.93;;;;;;;14.24;100.00;100847.16;5078391;22;20045;-87
2021/08/30 01:22:56;;;;;;;19.50;12.95;;;;;;;14.22;100.00;100843.75;5054233;28;20040;-87
2021/08/30 01:25:23;;;;;;;20.20;12.25;;;;;;;14.22;100.00;100846.34;5054065;28;20500;-87
2021/08/30 01:27:51;;;;;;;21.58;12.60;;;;;;;14.20;100.00;100845.53;5055200;28;20465;-86
2021/08/30 01:30:21;;;;;;;20.77;11.82;;;;;;;14.22;100.00;100851.56;5053973;28;20078;-86
2021/08/30 01:32:49;;;;;;;20.30;12.15;;;;;;;14.23;100.00;100849.81;5054426;28;20049;-86
2021/08/30 01:35:18;;;;;;;24.08;12.00;;;;;;;14.26;100.00;100844.50;5053890;28;20075;-86
2021/08/30 01:37:46;;;;;;;21.10;12.73;;;;;;;14.20;100.00;100853.34;5053858;28;20017;-87
2021/08/30 01:40:14;;;;;;;23.52;12.68;;;;;;;14.22;100.00;100850.69;5053986;28;20440;-86
2021/08/30 01:42:43;;;;;;;20.38;12.45;;;;;;;14.19;100.00;100850.78;5053719;28;20021;-86
2021/08/30 01:45:12;;;;;;;16.85;10.90;;;;;;;14.20;100.00;100844.69;5053709;28;20020;-86
2021/08/30 01:47:38;;;;;;;20.20;13.63;;;;;;;14.16;100.00;100841.31;5054862;28;20025;-86
2021/08/30 01:50:05;;;;;;;19.25;12.35;;;;;;;14.16;100.00;100841.31;5053547;28;20115;-86
2021/08/30 01:52:37;;;;;;;19.10;12.48;;;;;;;14.20;100.00;100837.72;5053531;28;20025;-86
2021/08/30 01:55:17;;;;;;;25.52;13.20;;;;;;;14.19;100.00;100845.56;5053571;28;20028;-86
2021/08/30 02:00:42;;;;;;;21.50;11.57;;;;;;;14.22;100.00;100842.88;5033290;28;20445;-86
2021/08/30 02:03:08;;;;;;;18.95;11.05;;;;;;;14.18;100.00;100841.25;5054633;28;20451;-86
2021/08/30 02:05:33;;;;;;;19.25;11.75;;;;;;;14.19;100.00;100846.44;5053305;28;20036;-86
2021/08/30 02:07:59;;;;;;;21.40;12.20;;;;;;;14.16;100.00;100841.31;5053255;28;20083;-86
2021/08/30 02:10:24;;;;;;;18.25;12.35;;;;;;;14.19;100.00;100835.13;5053077;28;20025;-86
2021/08/30 02:12:49;;;;;;;16.80;12.32;;;;;;;14.20;100.00;100836.84;5053121;28;20025;-86
2021/08/30 02:15:15;;;;;;;19.90;12.65;;;;;;;14.20;100.00;100839.47;5054332;28;20025;-86
2021/08/30 02:17:44;;;;;;;22.33;12.65;;;;;;;14.20;100.00;100832.50;5054379;28;20066;-85
2021/08/30 02:20:12;;;;;;;19.88;12.52;;;;;;;14.20;100.00;100835.09;5052714;28;20079;-85
2021/08/30 02:22:43;;;;;;;20.02;12.85;;;;;;;14.23;100.00;100836.78;5054180;28;20050;-85
2021/08/30 02:25:14;;;;;;;19.10;12.30;;;;;;;14.21;100.00;100835.94;5053154;28;20493;-85
2021/08/30 02:27:59;;;;;;;18.35;12.52;;;;;;;14.24;100.00;100838.47;5052825;28;20029;-84
2021/08/30 02:30:32;;;;;;;19.10;12.43;;;;;;;14.22;100.00;100837.66;5053050;28;20401;-84
2021/08/30 02:33:04;;;;;;;20.95;12.07;;;;;;;14.24;100.00;100838.47;5052817;28;20055;-84
2021/08/30 02:35:32;;;;;;;24.50;13.00;;;;;;;14.27;100.00;100838.38;5052787;28;20035;-84
2021/08/30 02:37:59;;;;;;;18.60;11.60;;;;;;;14.24;100.00;100834.09;5053907;28;20021;-84
2021/08/30 02:40:27;;;;;;;18.60;12.02;;;;;;;14.15;100.00;100838.72;5052585;28;20054;-84
2021/08/30 02:42:54;;;;;;;17.45;11.38;;;;;;;14.12;100.00;100828.38;5053866;28;20021;-84
2021/08/30 02:45:21;;;;;;;20.33;12.10;;;;;;;14.14;100.00;100837.03;5053446;28;20025;-84
2021/08/30 02:47:47;;;;;;;20.05;13.02;;;;;;;14.16;100.00;100836.09;5052375;28;20033;-84
2021/08/30 02:50:13;;;;;;;18.17;11.60;;;;;;;14.17;100.00;100827.34;5053643;28;20024;-84
2021/08/30 02:52:40;;;;;;;17.33;12.23;;;;;;;14.20;100.00;100831.63;5052533;28;20074;-84
2021/08/30 02:55:06;;;;;;;15.68;11.43;;;;;;;14.19;100.00;100841.22;5052524;28;20123;-84
2021/08/30 02:57:33;;;;;;;21.17;11.60;;;;;;;14.21;100.00;100838.56;5052483;28;20033;-84
2021/08/30 03:00:00;;;;;;;17.23;11.57;;;;;;;14.21;100.00;100833.34;5053519;28;20377;-84
2021/08/30 03:02:26;;;;;;;19.95;11.77;;;;;;;14.22;100.00;100833.31;5053817;28;20068;-84
2021/08/30 03:04:54;;;;;;;20.48;12.98;;;;;;;14.25;100.00;100834.94;5052501;28;20582;-85
2021/08/30 03:07:20;;;;;;;18.73;12.30;;;;;;;14.22;100.00;100835.03;5053341;28;20036;-84
2021/08/30 03:09:45;;;;;;;19.13;12.98;;;;;;;14.22;100.00;100825.47;5052173;28;20025;-84
2021/08/30 03:12:11;;;;;;;22.27;11.80;;;;;;;14.23;100.00;100823.72;5056002;28;20104;-84
2021/08/30 03:14:39;;;;;;;19.38;11.95;;;;;;;14.24;100.00;100833.25;5058399;28;20130;-84
2021/08/30 03:17:09;;;;;;;23.42;12.43;;;;;;;14.25;100.00;100824.50;5057234;28;20028;-84
2021/08/30 03:19:38;;;;;;;17.88;11.52;;;;;;;14.24;100.00;100838.47;5056889;28;20424;-85
2021/08/30 03:22:04;;;;;;;16.02;12.05;;;;;;;14.25;100.00;100825.41;5061222;28;20021;-84
2021/08/30 03:24:31;;;;;;;17.38;11.80;;;;;;;14.22;100.00;100837.66;5058952;28;20476;-84
2021/08/30 03:26:57;;;;;;;20.80;11.23;;;;;;;14.19;100.00;100829.91;5058483;28;20492;-84
2021/08/30 03:29:23;;;;;;;16.65;11.75;;;;;;;14.21;100.00;100838.56;5056683;28;20537;-84
2021/08/30 03:31:50;;;;;;;18.33;11.40;;;;;;;14.19;100.00;100832.53;5052821;28;20021;-84
2021/08/30 03:34:17;;;;;;;19.48;11.52;;;;;;;14.17;100.00;100829.97;5053310;28;20104;-85
2021/08/30 03:36:43;;;;;;;19.08;12.25;;;;;;;14.19;100.00;100829.91;5051867;28;20033;-85
2021/08/30 03:39:09;;;;;;;19.25;12.05;;;;;;;14.13;100.00;100828.34;5053327;28;20025;-85
2021/08/30 03:41:36;;;;;;;17.33;12.65;;;;;;;14.07;100.00;100832.88;5051953;28;20024;-84
2021/08/30 03:44:02;;;;;;;22.15;11.43;;;;;;;13.98;100.00;100834.84;5051963;28;20037;-85
2021/08/30 03:46:29;;;;;;;18.30;12.10;;;;;;;13.99;100.00;100838.31;5052439;28;20112;-84
2021/08/30 03:48:54;;;;;;;16.15;11.48;;;;;;;13.98;100.00;100831.41;5052924;28;20025;-84
2021/08/30 03:51:21;;;;;;;21.83;11.65;;;;;;;14.00;100.00;100829.59;5051860;28;20124;-84
2021/08/30 03:53:48;;;;;;;21.67;11.50;;;;;;;13.99;100.00;100828.72;5051861;28;20025;-84
2021/08/30 03:56:14;;;;;;;22.42;12.40;;;;;;;14.02;100.00;100839.06;5051779;28;20397;-85
2021/08/30 03:58:43;;;;;;;18.02;11.23;;;;;;;14.04;100.00;100842.50;5051924;28;20017;-85
2021/08/30 04:01:09;;;;;;;17.83;12.10;;;;;;;14.09;100.00;100838.91;5051573;28;20119;-84
2021/08/30 04:03:37;;;;;;;17.67;11.93;;;;;;;14.07;100.00;100838.09;5053005;28;20025;-84
2021/08/30 04:06:06;;;;;;;20.17;12.48;;;;;;;14.05;100.00;100839.00;5051546;28;20021;-84
2021/08/30 04:08:32;;;;;;;20.08;12.43;;;;;;;14.05;100.00;100843.34;5052645;28;20039;-84
2021/08/30 04:10:59;;;;;;;20.65;12.35;;;;;;;14.03;100.00;100845.16;5051694;28;20060;-84
2021/08/30 04:13:25;;;;;;;18.75;11.63;;;;;;;14.07;100.00;100851.13;5051458;28;20025;-85
2021/08/30 04:15:50;;;;;;;23.65;12.80;;;;;;;14.03;100.00;100847.75;5052808;28;20032;-85
2021/08/30 04:18:15;;;;;;;19.15;12.38;;;;;;;14.03;100.00;100853.81;5052713;28;20022;-84
2021/08/30 04:20:41;;;;;;;20.20;11.90;;;;;;;14.05;100.00;100843.34;5051826;28;20029;-84
2021/08/30 04:23:06;;;;;;;20.23;11.63;;;;;;;14.03;100.00;100845.16;5052648;28;20036;-84
2021/08/30 04:25:31;;;;;;;23.13;12.52;;;;;;;14.04;100.00;100852.09;5056439;28;20020;-85
2021/08/30 04:27:56;;;;;;;22.50;13.18;;;;;;;14.03;100.00;100845.16;5055137;28;20028;-85
2021/08/30 04:30:22;;;;;;;21.52;13.13;;;;;;;14.04;100.00;100860.75;5056221;28;20032;-85
2021/08/30 04:32:47;;;;;;;19.85;12.27;;;;;;;14.08;100.00;100855.47;5056281;28;20107;-85
2021/08/30 04:35:13;;;;;;;20.88;12.85;;;;;;;14.07;100.00;100861.56;5055096;28;20397;-84
2021/08/30 04:37:39;;;;;;;19.42;12.82;;;;;;;14.05;100.00;100862.47;5056228;28;20465;-85
2021/08/30 04:40:05;;;;;;;20.35;12.30;;;;;;;14.07;100.00;100861.56;5054752;28;20035;-85
2021/08/30 04:42:31;;;;;;;22.98;12.73;;;;;;;14.08;100.00;100860.69;5056089;28;20032;-84
2021/08/30 04:44:56;;;;;;;20.92;12.43;;;;;;;14.04;100.00;100863.38;5054845;28;20082;-85
2021/08/30 04:47:21;;;;;;;18.13;13.15;;;;;;;14.05;100.00;100851.19;5054870;28;20052;-84
2021/08/30 04:49:47;;;;;;;19.23;13.20;;;;;;;14.03;100.00;100871.22;5056595;28;20060;-85
2021/08/30 04:52:12;;;;;;;19.55;12.88;;;;;;;14.04;100.00;100873.81;5054892;28;20032;-85
2021/08/30 04:54:37;;;;;;;20.77;11.68;;;;;;;14.08;100.00;100868.50;5054790;28;20020;-85
2021/08/30 04:57:03;;;;;;;19.58;12.45;;;;;;;14.08;100.00;100869.34;5054683;28;20025;-85
2021/08/30 04:59:28;;;;;;;18.35;11.20;;;;;;;14.10;100.00;100879.72;5054558;28;20025;-84
2021/08/30 05:01:53;;;;;;;22.42;11.98;;;;;;;14.10;100.00;100874.50;5054558;28;20128;-84
2021/08/30 05:04:19;;;;;;;18.83;11.32;;;;;;;14.10;100.00;100872.78;5055756;28;20028;-85
2021/08/30 05:06:44;;;;;;;17.00;11.45;;;;;;;14.13;100.00;100875.31;5054426;28;20029;-86
2021/08/30 05:09:09;;;;;;;19.20;11.70;;;;;;;14.13;100.00;100877.03;5055684;28;20480;-86
2021/08/30 05:11:38;;;;;;;19.85;12.13;;;;;;;14.14;100.00;100878.78;5054342;28;20451;-87
2021/08/30 05:14:04;;;;;;;16.63;11.07;;;;;;;14.18;100.00;100880.38;5054531;28;20020;-86
2021/08/30 05:16:30;;;;;;;17.27;10.93;;;;;;;14.18;100.00;100877.78;5054430;28;20146;-86
2021/08/30 05:18:55;;;;;;;16.90;11.65;;;;;;;14.19;100.00;100871.66;5055341;28;20033;-88
2021/08/30 05:21:20;;;;;;;20.05;10.77;;;;;;;14.19;100.00;100876.88;5054156;28;20384;-87
2021/08/30 05:23:45;;;;;;;24.67;11.82;;;;;;;14.17;100.00;100878.69;5054623;28;20024;-87
2021/08/30 05:26:11;;;;;;;18.77;10.82;;;;;;;14.24;100.00;100878.47;5054241;28;20033;-86
2021/08/30 05:28:37;;;;;;;18.63;11.20;;;;;;;14.22;100.00;100882.00;5053906;28;20112;-87
2021/08/30 05:31:02;;;;;;;27.38;12.07;;;;;;;14.25;100.00;100881.91;5055340;28;20059;-87
2021/08/30 05:33:28;;;;;;;20.65;11.68;;;;;;;14.32;100.00;100880.00;5053969;28;20391;-87
2021/08/30 05:35:53;;;;;;;18.98;12.45;;;;;;;14.28;100.00;100876.59;5055033;28;20036;-87
2021/08/30 05:38:18;;;;;;;16.27;11.15;;;;;;;14.31;100.00;100881.75;5053919;28;20461;-87
2021/08/30 05:40:43;;;;;;;20.75;12.02;;;;;;;14.32;100.00;100888.69;5053868;28;20075;-88
2021/08/30 05:43:09;;;;;;;16.30;11.00;;;;;;;14.38;100.00;100880.69;5054049;28;20037;-88
2021/08/30 05:45:34;;;;;;;17.00;11.85;;;;;;;14.39;100.00;100882.38;5053853;28;20392;-88
2021/08/30 05:47:59;;;;;;;22.20;11.95;;;;;;;14.42;100.00;100889.28;5053875;28;20162;-88
2021/08/30 05:50:25;;;;;;;17.08;11.55;;;;;;;14.43;100.00;100891.81;5053888;28;20083;-88
2021/08/30 05:52:50;;;;;;;17.70;11.18;;;;;;;14.48;100.00;100887.34;5053572;28;20035;-88
2021/08/30 05:55:16;;;;;;;16.10;11.27;;;;;;;14.49;100.00;100888.19;5053722;28;20021;-88
2021/08/30 05:57:42;;;;;;;16.30;10.48;;;;;;;14.49;100.00;100899.47;5053839;28;20108;-88
2021/08/30 06:00:07;;;;;;;17.33;10.02;;;;;;;14.50;100.00;100896.00;5054803;28;20072;-88
2021/08/30 06:02:33;;;;;;;16.38;10.52;;;;;;;14.50;100.00;100897.72;5053570;28;20048;-88
2021/08/30 06:04:58;;;;;;;17.30;11.38;;;;;;;14.57;100.00;100901.06;5053683;28;20025;-87
2021/08/30 06:07:23;;;;;;;17.25;10.85;;;;;;;14.55;100.00;100893.25;5053249;28;20037;-88
2021/08/30 06:09:49;;;;;;;18.27;10.40;;;;;;;14.64;100.00;100893.00;5054579;28;20493;-88
2021/08/30 06:12:14;;;;;;;15.55;9.77;;;;;;;14.67;100.00;100890.28;5054639;28;20028;-88
2021/08/30 06:14:40;;;;;;;14.05;10.63;;;;;;;14.73;100.00;100884.88;5053529;28;20017;-88
2021/08/30 06:17:06;;;;;;;14.57;9.80;;;;;;;14.74;100.00;100890.97;5053424;28;20047;-88
2021/08/30 06:19:31;;;;;;;20.10;10.90;;;;;;;14.75;100.00;100892.69;5053374;28;20029;-88
2021/08/30 06:21:56;;;;;;;18.42;9.95;;;;;;;14.74;100.00;100885.75;5053307;28;20064;-88
2021/08/30 06:24:21;;;;;;;16.83;10.38;;;;;;;14.80;100.00;100889.91;5053293;28;20082;-88
2021/08/30 06:26:47;;;;;;;21.40;10.57;;;;;;;14.87;100.00;100881.00;5053126;28;20111;-88
2021/08/30 06:29:12;;;;;;;15.27;10.27;;;;;;;14.89;100.00;100880.03;5054906;28;20025;-88
2021/08/30 06:31:37;;;;;;;13.95;8.60;;;;;;;14.89;100.00;100884.41;5053310;28;20082;-88
2021/08/30 06:34:03;;;;;;;13.68;9.43;;;;;;;15.10;100.00;100888.13;5053183;28;20025;-88
2021/08/30 06:36:28;;;;;;;16.55;9.88;;;;;;;15.21;100.00;100891.25;5054363;28;20029;-88
2021/08/30 06:38:53;;;;;;;15.57;9.82;;;;;;;15.31;100.00;100897.03;5054334;28;20013;-88
2021/08/30 06:41:19;;;;;;;15.20;9.38;;;;;;;15.27;100.00;100884.94;5053258;28;20027;-88
2021/08/30 06:43:44;;;;;;;18.40;9.00;;;;;;;15.40;100.00;100881.91;5053175;28;20025;-88
2021/08/30 06:46:09;;;;;;;18.70;9.05;;;;;;;15.47;100.00;100882.56;5053314;28;20035;-88
2021/08/30 06:48:35;;;;;;;15.63;8.77;;;;;;;15.57;100.00;100881.34;5052958;28;20025;-88
2021/08/30 06:51:01;;;;;;;16.80;9.23;;;;;;;15.66;100.00;100894.09;5053041;28;20033;-88
2021/08/30 06:53:26;;;;;;;12.93;8.85;;;;;;;15.63;100.00;100883.75;5054196;28;20032;-88
2021/08/30 06:55:51;;;;;;;15.75;8.68;;;;;;;15.69;100.00;100893.16;5054384;28;20033;-88
2021/08/30 06:58:16;;;;;;;11.57;7.95;;;;;;;15.78;100.00;100885.00;5052908;28;20017;-88
2021/08/30 07:00:42;;;;;;;13.20;8.70;;;;;;;15.80;100.00;100891.06;5053835;28;20091;-88
2021/08/30 07:03:08;;;;;;;13.40;7.75;;;;;;;15.51;100.00;100894.59;5054085;28;20025;-88
2021/08/30 07:05:33;;;;;;;12.68;8.27;;;;;;;15.68;100.00;100885.41;5053417;28;20048;-88
2021/08/30 07:07:59;;;;;;;15.32;7.93;;;;;;;15.66;100.00;100893.25;5055814;28;20032;-88
2021/08/30 07:10:24;;;;;;;12.13;8.40;;;;;;;15.83;100.00;100888.34;5054759;28;20040;-88
2021/08/30 07:12:50;;;;;;;12.48;8.18;;;;;;;15.85;100.00;100894.34;5054360;28;20020;-88
2021/08/30 07:15:15;;;;;;;15.05;8.00;;;;;;;15.95;100.00;100894.03;5054709;28;20020;-88
2021/08/30 07:17:43;;;;;;;12.75;8.00;;;;;;;15.97;100.00;100893.06;5053513;28;20481;-90
2021/08/30 07:20:09;;;;;;;12.25;8.10;;;;;;;15.99;100.00;100890.41;5052961;28;20040;-88
2021/08/30 07:22:34;;;;;;;11.98;6.93;;;;;;;15.84;100.00;100894.41;5069914;22;20037;-83
2021/08/30 07:25:00;;;;;;;13.27;7.97;;;;;;;16.26;100.00;100889.44;5058240;28;20108;-83
2021/08/30 07:27:25;;;;;;;11.68;8.10;;;;;;;16.20;100.00;100900.13;5057023;28;20057;-82
2021/08/30 07:29:51;;;;;;;10.77;7.13;;;;;;;16.58;100.00;100900.47;5056872;28;20037;-82
2021/08/30 07:32:17;;;;;;;13.18;7.22;;;;;;;16.77;100.00;100900.63;5058398;28;20051;-82
2021/08/30 07:34:43;;;;;;;14.95;7.50;;;;;;;17.03;100.00;100899.63;5058124;28;20044;-83
2021/08/30 07:37:08;;;;;;;12.98;6.93;;;;;;;17.49;100.00;100905.66;5056000;28;20024;-83
2021/08/30 07:39:34;;;;;;;11.07;6.78;;;;;;;18.32;100.00;100897.72;5056638;28;20028;-83
2021/08/30 07:41:59;;;;;;;10.93;6.72;;;;;;;18.48;100.00;100897.00;5057292;28;20473;-83
2021/08/30 07:44:25;;;;;;;11.60;7.35;;;;;;;18.95;100.00;100902.69;5057605;28;20377;-85
2021/08/30 07:46:51;;;;;;;11.05;6.00;;;;;;;18.68;100.00;100903.97;5058089;28;20044;-83
2021/08/30 07:49:16;;;;;;;9.52;6.13;;;;;;;17.24;100.00;100911.88;5059026;28;20029;-83
2021/08/30 07:51:42;;;;;;;11.38;6.72;;;;;;;16.90;100.00;100909.75;5058596;28;20044;-83
2021/08/30 07:54:08;;;;;;;15.20;6.75;;;;;;;16.72;100.00;100906.03;5058297;28;20029;-83
2021/08/30 07:56:38;;;;;;;14.35;6.55;;;;;;;16.63;100.00;100902.91;5058134;28;20055;-83
2021/08/30 07:59:05;;;;;;;12.45;6.28;;;;;;;16.37;100.00;100904.72;5059690;28;20469;-83
2021/08/30 08:01:30;;;;;;;10.82;6.57;;;;;;;16.25;100.00;100908.63;5059820;28;20031;-82
2021/08/30 08:03:55;;;;;;;9.95;5.78;;;;;;;16.27;100.00;100912.06;5063093;28;20029;-83
2021/08/30 08:06:21;;;;;;;9.93;6.35;;;;;;;16.29;100.00;100906.78;5061968;28;20051;-83
2021/08/30 08:08:46;;;;;;;13.85;6.43;;;;;;;16.26;100.00;100905.13;5057050;28;20025;-84
2021/08/30 08:11:12;;;;;;;9.85;6.20;;;;;;;16.41;100.00;100915.94;5057170;28;20033;-84
2021/08/30 08:13:38;;;;;;;15.68;5.93;;;;;;;16.48;100.00;100917.44;5056228;28;20055;-84
2021/08/30 08:16:03;;;;;;;9.18;5.80;;;;;;;16.36;100.00;100910.03;5056257;28;20102;-84
2021/08/30 08:18:30;;;;;;;9.05;6.00;;;;;;;16.24;100.00;100925.25;5055715;28;20086;-84
2021/08/30 08:20:55;;;;;;;8.27;5.00;;;;;;;16.34;100.00;100924.00;5055904;28;20027;-83
2021/08/30 08:23:20;;;;;;;10.07;5.40;;;;;;;16.55;100.00;100918.91;5056260;28;20029;-84
2021/08/30 08:25:46;;;;;;;9.82;5.13;;;;;;;16.96;100.00;100917.38;5057232;28;20519;-84
2021/08/30 08:28:11;;;;;;;8.32;5.03;;;;;;;17.18;100.00;100914.75;5055885;28;20037;-84
2021/08/30 08:30:36;;;;;;;7.50;5.05;;;;;;;17.08;100.00;100916.00;5055820;28;20075;-84
2021/08/30 08:33:02;;;;;;;11.23;4.97;;;;;;;17.07;100.00;100922.19;5055835;28;20116;-84
2021/08/30 08:35:27;;;;;;;7.53;4.78;;;;;;;16.79;100.00;100917.16;5057074;28;20025;-84
2021/08/30 08:37:53;;;;;;;10.70;5.28;;;;;;;16.96;100.00;100914.75;5056018;28;20536;-84
2021/08/30 08:40:18;;;;;;;12.95;5.43;;;;;;;16.81;100.00;100917.97;5057091;28;20063;-84
2021/08/30 08:42:44;;;;;;;8.80;5.40;;;;;;;16.87;100.00;100914.22;5055630;28;20025;-83
2021/08/30 08:45:12;;;;;;;9.50;5.43;;;;;;;16.89;100.00;100918.50;5055559;28;20052;-83
2021/08/30 08:47:40;;;;;;;8.73;3.38;;;;;;;16.62;100.00;100923.00;5057374;28;20385;-84
2021/08/30 08:50:08;;;;;;;8.77;4.90;;;;;;;16.77;100.00;100922.44;5055259;28;20017;-83
2021/08/30 08:52:34;;;;;;;11.35;5.03;;;;;;;16.77;100.00;100921.59;5055371;28;20063;-84
2021/08/30 08:55:00;;;;;;;11.07;5.20;;;;;;;16.64;100.00;100921.19;5055330;28;20044;-83
2021/08/30 08:57:25;;;;;;;9.88;4.93;;;;;;;16.52;100.00;100929.50;5055056;28;20488;-83
2021/08/30 09:00:07;;;;;;;8.65;5.88;;;;;;;16.62;100.00;100928.22;5056415;28;20032;-83
2021/08/30 09:02:34;;;;;;;9.68;4.68;;;;;;;16.38;100.00;100921.28;5059670;28;20063;-83
2021/08/30 09:05:00;;;;;;;9.85;4.72;;;;;;;16.17;100.00;100929.00;5057230;28;20032;-83
2021/08/30 09:07:37;;;;;;;8.00;5.40;;;;;;;15.98;100.00;100930.53;5058821;28;20052;-83
2021/08/30 09:10:04;;;;;;;9.38;5.35;;;;;;;15.86;100.00;100927.47;5056720;28;20477;-83
2021/08/30 09:12:29;;;;;;;7.75;4.47;;;;;;;15.90;100.00;100932.59;5058870;28;20029;-83
2021/08/30 09:14:55;;;;;;;10.30;5.07;;;;;;;15.90;100.00;100929.97;5058131;28;20047;-83
2021/08/30 09:17:21;;;;;;;11.50;4.72;;;;;;;16.07;100.00;100936.34;5058736;28;20435;-83
2021/08/30 09:19:47;;;;;;;8.60;3.97;;;;;;;16.11;100.00;100937.06;5056386;28;20032;-83
2021/08/30 09:22:13;;;;;;;8.70;4.18;;;;;;;16.09;100.00;100934.50;5056579;28;20029;-83
2021/08/30 09:24:39;;;;;;;9.38;4.63;;;;;;;15.91;100.00;100924.66;5058129;28;20025;-83
2021/08/30 09:27:10;;;;;;;8.15;5.32;;;;;;;15.73;100.00;100927.91;5058460;28;20477;-83
2021/08/30 09:29:39;;;;;;;7.60;4.20;;;;;;;15.90;100.00;100935.22;5058431;28;20028;-82
2021/08/30 09:32:14;;;;;;;11.15;5.22;;;;;;;15.99;100.00;100933.13;5057468;28;20052;-83
2021/08/30 09:34:43;;;;;;;9.50;4.80;;;;;;;15.91;100.00;100936.91;5057517;28;20485;-83
2021/08/30 09:37:23;;;;;;;8.20;4.88;;;;;;;15.97;100.00;100937.53;5057625;28;20459;-82
2021/08/30 09:39:51;;;;;;;8.35;4.70;;;;;;;16.00;100.00;100940.06;5059365;28;20029;-82
2021/08/30 09:42:17;;;;;;;8.73;4.68;;;;;;;15.87;100.00;100936.16;5057921;28;20056;-82
2021/08/30 09:44:44;;;;;;;9.38;4.97;;;;;;;15.78;100.00;100939.09;5059512;28;20025;-82
2021/08/30 09:47:14;;;;;;;7.95;4.78;;;;;;;15.84;100.00;100934.50;5057527;28;20112;-82
2021/08/30 09:49:41;;;;;;;11.13;5.00;;;;;;;15.74;100.00;100942.72;5057444;28;20025;-83
2021/08/30 09:52:07;;;;;;;9.63;4.88;;;;;;;15.75;100.00;100939.19;5055988;28;20051;-83
2021/08/30 09:54:33;;;;;;;11.13;4.95;;;;;;;15.78;100.00;100944.31;5056062;28;20477;-83
2021/08/30 09:56:58;;;;;;;8.93;4.60;;;;;;;15.83;100.00;100932.81;5057261;28;20029;-83
2021/08/30 09:59:25;;;;;;;8.02;5.15;;;;;;;15.90;100.00;100938.66;5055891;28;20079;-83
2021/08/30 10:01:53;;;;;;;9.13;4.88;;;;;;;15.91;100.00;100944.75;5056196;28;20025;-83
2021/08/30 10:04:20;;;;;;;11.23;4.78;;;;;;;15.97;100.00;100944.53;5055970;28;20020;-83
2021/08/30 10:06:48;;;;;;;7.70;4.50;;;;;;;16.18;100.00;100949.03;5057135;28;20020;-83
2021/08/30 10:09:14;;;;;;;10.82;5.25;;;;;;;16.26;100.00;100947.00;5055900;28;20021;-83
2021/08/30 10:11:41;;;;;;;11.32;4.85;;;;;;;16.02;100.00;100946.09;5057191;28;20027;-83
2021/08/30 10:14:08;;;;;;;9.18;4.40;;;;;;;16.16;100.00;100952.59;5056820;28;20025;-83
2021/08/30 10:16:35;;;;;;;8.75;4.63;;;;;;;16.05;100.00;100948.59;5056294;28;20021;-83
2021/08/30 10:19:00;;;;;;;10.23;5.05;;;;;;;16.08;100.00;100952.88;5056713;28;20083;-82
2021/08/30 10:21:28;;;;;;;7.78;4.78;;;;;;;15.91;100.00;100947.38;5055667;28;20037;-83
2021/08/30 10:23:53;;;;;;;11.60;4.60;;;;;;;16.09;100.00;100957.19;5057997;28;20431;-83
2021/08/30 10:26:19;;;;;;;11.70;4.35;;;;;;;16.17;100.00;100952.56;5057718;28;20021;-83
2021/08/30 10:28:47;;;;;;;11.63;4.80;;;;;;;16.45;100.00;100946.34;5056937;28;20108;-83
2021/08/30 10:31:24;;;;;;;9.60;4.75;;;;;;;16.26;100.00;100946.16;5056351;28;20094;-83
2021/08/30 10:33:52;;;;;;;7.78;4.88;;;;;;;16.48;100.00;100938.38;5056505;28;20499;-84
2021/08/30 10:36:20;;;;;;;11.60;5.03;;;;;;;16.42;100.00;100939.44;5055988;28;20032;-83
2021/08/30 10:39:04;;;;;;;8.65;4.40;;;;;;;16.62;100.00;100943.94;5056182;28;20025;-83
2021/08/30 10:41:35;;;;;;;8.43;4.13;;;;;;;16.45;100.00;100948.97;5056812;28;20037;-83
2021/08/30 10:44:13;;;;;;;7.22;4.10;;;;;;;16.33;100.00;100950.25;5057620;28;20024;-83
2021/08/30 10:46:45;;;;;;;7.85;4.47;;;;;;;16.61;100.00;100946.63;5056303;28;20484;-83
2021/08/30 10:49:31;;;;;;;8.13;4.63;;;;;;;16.75;100.00;100947.88;5056993;28;20021;-83
2021/08/30 10:52:06;;;;;;;9.65;4.28;;;;;;;16.76;100.00;100949.56;5057818;28;20025;-83
2021/08/30 10:54:32;;;;;;;8.85;4.25;;;;;;;16.51;100.00;100956.59;5057986;28;20124;-83
2021/08/30 10:56:59;;;;;;;8.48;4.22;;;;;;;16.57;100.00;100953.75;5057246;28;20155;-83
2021/08/30 10:59:27;;;;;;;9.07;4.20;;;;;;;16.68;100.00;100958.59;5057229;28;20020;-83
2021/08/30 11:01:59;;;;;;;15.60;5.40;;;;;;;16.56;100.00;100959.88;5056582;28;20028;-83
2021/08/30 11:04:34;;;;;;;9.88;3.92;;;;;;;16.67;100.00;100952.50;5056885;28;20439;-83
2021/08/30 11:07:01;;;;;;;8.88;4.07;;;;;;;16.46;100.00;100951.50;5056978;28;20119;-82
2021/08/30 11:09:26;;;;;;;8.68;4.22;;;;;;;16.82;100.00;100950.25;5057678;28;20027;-82